sensor_id;sensor_type;location;lat;lon;timestamp;temperature;humidity
29813;DHT22;16707;48.106;11.548;2023-11-21T00:01:46;7.80;99.90
29813;DHT22;16707;48.106;11.548;2023-11-21T00:04:13;7.80;99.90
29813;DHT22;16707;48.106;11.548;2023-11-21T00:06:40;7.80;99.90
29813;DHT22;16707;48.106;11.548;2023-11-21T00:09:07;7.80;99.90
29813;DHT22;16707;48.106;11.548;2023-11-21T00:11:35;7.80;99.90
29813;DHT22;16707;48.106;11.548;2023-11-21T00:14:03;7.90;99.90
29813;DHT22;16707;48.106;11.548;2023-11-21T00:16:31;7.80;99.90
29813;DHT22;16707;48.106;11.548;2023-11-21T00:18:58;7.80;99.90
29813;DHT22;16707;48.106;11.548;2023-11-21T00:21:24;7.90;99.90
29813;DHT22;16707;48.106;11.548;2023-11-21T00:23:51;7.80;99.90
29813;DHT22;16707;48.106;11.548;2023-11-21T00:26:18;7.80;99.90
29813;DHT22;16707;48.106;11.548;2023-11-21T00:28:44;7.80;99.90
29813;DHT22;16707;48.106;11.548;2023-11-21T00:31:11;7.70;99.90
29813;DHT22;16707;48.106;11.548;2023-11-21T00:33:40;7.70;99.90
29813;DHT22;16707;48.106;11.548;2023-11-21T00:36:09;7.70;99.90
29813;DHT22;16707;48.106;11.548;2023-11-21T00:38:36;7.50;99.90
29813;DHT22;16707;48.106;11.548;2023-11-21T00:41:05;7.50;99.90
29813;DHT22;16707;48.106;11.548;2023-11-21T00:43:31;7.40;99.90
29813;DHT22;16707;48.106;11.548;2023-11-21T00:45:59;7.40;99.90
29813;DHT22;16707;48.106;11.548;2023-11-21T00:48:25;7.30;99.90
29813;DHT22;16707;48.106;11.548;2023-11-21T00:50:53;7.30;99.90
29813;DHT22;16707;48.106;11.548;2023-11-21T00:53:21;7.20;99.90
29813;DHT22;16707;48.106;11.548;2023-11-21T00:55:51;7.20;99.90
29813;DHT22;16707;48.106;11.548;2023-11-21T00:58:22;7.10;99.90
29813;DHT22;16707;48.106;11.548;2023-11-21T01:00:49;7.20;99.90
29813;DHT22;16707;48.106;11.548;2023-11-21T01:03:15;7.10;99.90
29813;DHT22;16707;48.106;11.548;2023-11-21T01:05:42;7.00;99.90
29813;DHT22;16707;48.106;11.548;2023-11-21T01:08:10;6.90;99.90
29813;DHT22;16707;48.106;11.548;2023-11-21T01:10:37;6.90;99.90
29813;DHT22;16707;48.106;11.548;2023-11-21T01:13:04;6.90;99.90
29813;DHT22;16707;48.106;11.548;2023-11-21T01:15:32;6.90;99.90
29813;DHT22;16707;48.106;11.548;2023-11-21T01:17:59;6.90;99.90
29813;DHT22;16707;48.106;11.548;2023-11-21T01:20:25;6.90;99.90
29813;DHT22;16707;48.106;11.548;2023-11-21T01:22:52;6.80;99.90
29813;DHT22;16707;48.106;11.548;2023-11-21T01:25:20;6.80;99.90
29813;DHT22;16707;48.106;11.548;2023-11-21T01:27:47;6.70;99.90
29813;DHT22;16707;48.106;11.548;2023-11-21T01:30:14;6.60;99.90
29813;DHT22;16707;48.106;11.548;2023-11-21T01:32:41;6.50;99.90
29813;DHT22;16707;48.106;11.548;2023-11-21T01:35:09;6.50;99.90
29813;DHT22;16707;48.106;11.548;2023-11-21T01:37:36;6.40;99.90
29813;DHT22;16707;48.106;11.548;2023-11-21T01:40:04;6.30;99.90
29813;DHT22;16707;48.106;11.548;2023-11-21T01:42:36;6.20;99.90
29813;DHT22;16707;48.106;11.548;2023-11-21T01:45:03;6.30;99.90
29813;DHT22;16707;48.106;11.548;2023-11-21T01:47:30;6.30;99.90
29813;DHT22;16707;48.106;11.548;2023-11-21T01:49:57;6.50;99.90
29813;DHT22;16707;48.106;11.548;2023-11-21T01:52:24;6.60;99.90
29813;DHT22;16707;48.106;11.548;2023-11-21T01:54:51;6.60;99.90
29813;DHT22;16707;48.106;11.548;2023-11-21T01:57:19;6.70;99.90
29813;DHT22;16707;48.106;11.548;2023-11-21T01:59:47;6.70;99.90
29813;DHT22;16707;48.106;11.548;2023-11-21T02:02:15;6.70;99.90
29813;DHT22;16707;48.106;11.548;2023-11-21T02:04:42;6.80;99.90
29813;DHT22;16707;48.106;11.548;2023-11-21T02:07:08;6.90;99.90
29813;DHT22;16707;48.106;11.548;2023-11-21T02:09:37;6.90;99.90
29813;DHT22;16707;48.106;11.548;2023-11-21T02:12:07;6.90;99.90
29813;DHT22;16707;48.106;11.548;2023-11-21T02:14:35;7.00;99.90
29813;DHT22;16707;48.106;11.548;2023-11-21T02:17:03;7.00;99.90
29813;DHT22;16707;48.106;11.548;2023-11-21T02:19:30;7.00;99.90
29813;DHT22;16707;48.106;11.548;2023-11-21T02:21:57;7.10;99.90
29813;DHT22;16707;48.106;11.548;2023-11-21T02:24:30;7.20;99.90
29813;DHT22;16707;48.106;11.548;2023-11-21T02:26:57;7.30;99.90
29813;DHT22;16707;48.106;11.548;2023-11-21T02:29:23;7.40;99.90
29813;DHT22;16707;48.106;11.548;2023-11-21T02:31:53;7.40;99.90
29813;DHT22;16707;48.106;11.548;2023-11-21T02:34:20;7.50;99.90
29813;DHT22;16707;48.106;11.548;2023-11-21T02:36:47;7.50;99.90
29813;DHT22;16707;48.106;11.548;2023-11-21T02:39:14;7.60;99.90
29813;DHT22;16707;48.106;11.548;2023-11-21T02:41:43;7.60;99.90
29813;DHT22;16707;48.106;11.548;2023-11-21T02:44:13;7.60;99.90
29813;DHT22;16707;48.106;11.548;2023-11-21T02:46:39;7.60;99.90
29813;DHT22;16707;48.106;11.548;2023-11-21T02:49:06;7.70;99.90
29813;DHT22;16707;48.106;11.548;2023-11-21T02:51:35;7.70;99.90
29813;DHT22;16707;48.106;11.548;2023-11-21T02:54:03;7.60;99.90
29813;DHT22;16707;48.106;11.548;2023-11-21T02:56:32;7.60;99.90
29813;DHT22;16707;48.106;11.548;2023-11-21T02:59:00;7.50;99.90
29813;DHT22;16707;48.106;11.548;2023-11-21T03:01:27;7.50;99.90
29813;DHT22;16707;48.106;11.548;2023-11-21T03:03:54;7.50;99.90
29813;DHT22;16707;48.106;11.548;2023-11-21T03:06:21;7.40;99.90
29813;DHT22;16707;48.106;11.548;2023-11-21T03:08:47;7.40;99.90
29813;DHT22;16707;48.106;11.548;2023-11-21T03:11:14;7.30;99.90
29813;DHT22;16707;48.106;11.548;2023-11-21T03:13:41;7.30;99.90
29813;DHT22;16707;48.106;11.548;2023-11-21T03:16:09;7.30;99.90
29813;DHT22;16707;48.106;11.548;2023-11-21T03:18:36;7.30;99.90
29813;DHT22;16707;48.106;11.548;2023-11-21T03:21:03;7.30;99.90
29813;DHT22;16707;48.106;11.548;2023-11-21T03:23:30;7.30;99.90
29813;DHT22;16707;48.106;11.548;2023-11-21T03:25:56;7.40;99.90
29813;DHT22;16707;48.106;11.548;2023-11-21T03:28:23;7.40;99.90
29813;DHT22;16707;48.106;11.548;2023-11-21T03:30:50;7.40;99.90
29813;DHT22;16707;48.106;11.548;2023-11-21T03:33:18;7.40;99.90
29813;DHT22;16707;48.106;11.548;2023-11-21T03:35:45;7.60;99.90
29813;DHT22;16707;48.106;11.548;2023-11-21T03:38:12;7.50;99.90
29813;DHT22;16707;48.106;11.548;2023-11-21T03:40:39;7.40;99.90
29813;DHT22;16707;48.106;11.548;2023-11-21T03:43:05;7.40;99.90
29813;DHT22;16707;48.106;11.548;2023-11-21T03:45:32;7.40;99.90
29813;DHT22;16707;48.106;11.548;2023-11-21T03:47:59;7.50;99.90
29813;DHT22;16707;48.106;11.548;2023-11-21T03:50:28;7.40;99.90
29813;DHT22;16707;48.106;11.548;2023-11-21T03:52:55;7.30;99.90
29813;DHT22;16707;48.106;11.548;2023-11-21T03:55:21;7.20;99.90
29813;DHT22;16707;48.106;11.548;2023-11-21T03:57:49;7.10;99.90
29813;DHT22;16707;48.106;11.548;2023-11-21T04:00:16;6.90;99.90
29813;DHT22;16707;48.106;11.548;2023-11-21T04:02:45;6.90;99.90
29813;DHT22;16707;48.106;11.548;2023-11-21T04:05:12;6.90;99.90
29813;DHT22;16707;48.106;11.548;2023-11-21T04:07:40;6.70;99.90
29813;DHT22;16707;48.106;11.548;2023-11-21T04:10:07;6.60;99.90
29813;DHT22;16707;48.106;11.548;2023-11-21T04:12:34;6.50;99.90
29813;DHT22;16707;48.106;11.548;2023-11-21T04:15:01;6.50;99.90
29813;DHT22;16707;48.106;11.548;2023-11-21T04:17:28;6.60;99.90
29813;DHT22;16707;48.106;11.548;2023-11-21T04:19:55;6.80;99.90
29813;DHT22;16707;48.106;11.548;2023-11-21T04:22:21;6.90;99.90
29813;DHT22;16707;48.106;11.548;2023-11-21T04:24:49;7.00;99.90
29813;DHT22;16707;48.106;11.548;2023-11-21T04:27:16;7.20;99.90
29813;DHT22;16707;48.106;11.548;2023-11-21T04:29:43;7.20;99.90
29813;DHT22;16707;48.106;11.548;2023-11-21T04:32:10;7.30;99.90
29813;DHT22;16707;48.106;11.548;2023-11-21T04:34:38;7.40;99.90
29813;DHT22;16707;48.106;11.548;2023-11-21T04:37:04;7.50;99.90
29813;DHT22;16707;48.106;11.548;2023-11-21T04:39:31;7.50;99.90
29813;DHT22;16707;48.106;11.548;2023-11-21T04:41:59;7.50;99.90
29813;DHT22;16707;48.106;11.548;2023-11-21T04:44:26;7.40;99.90
29813;DHT22;16707;48.106;11.548;2023-11-21T04:46:53;7.40;99.90
29813;DHT22;16707;48.106;11.548;2023-11-21T04:49:19;7.40;99.90
29813;DHT22;16707;48.106;11.548;2023-11-21T04:51:46;7.40;99.90
29813;DHT22;16707;48.106;11.548;2023-11-21T04:54:13;7.30;99.90
29813;DHT22;16707;48.106;11.548;2023-11-21T04:56:39;7.40;99.90
29813;DHT22;16707;48.106;11.548;2023-11-21T04:59:08;7.40;99.90
29813;DHT22;16707;48.106;11.548;2023-11-21T05:01:35;7.30;99.90
29813;DHT22;16707;48.106;11.548;2023-11-21T05:04:02;7.40;99.90
29813;DHT22;16707;48.106;11.548;2023-11-21T05:06:31;7.40;99.90
29813;DHT22;16707;48.106;11.548;2023-11-21T05:08:58;7.40;99.90
29813;DHT22;16707;48.106;11.548;2023-11-21T05:11:25;7.40;99.90
29813;DHT22;16707;48.106;11.548;2023-11-21T05:13:51;7.40;99.90
29813;DHT22;16707;48.106;11.548;2023-11-21T05:16:20;7.30;99.90
29813;DHT22;16707;48.106;11.548;2023-11-21T05:18:47;7.30;99.90
29813;DHT22;16707;48.106;11.548;2023-11-21T05:21:15;7.20;99.90
29813;DHT22;16707;48.106;11.548;2023-11-21T05:23:42;7.20;99.90
29813;DHT22;16707;48.106;11.548;2023-11-21T05:26:09;7.20;99.90
29813;DHT22;16707;48.106;11.548;2023-11-21T05:28:35;7.20;99.90
29813;DHT22;16707;48.106;11.548;2023-11-21T05:31:02;7.10;99.90
29813;DHT22;16707;48.106;11.548;2023-11-21T05:33:30;7.20;99.90
29813;DHT22;16707;48.106;11.548;2023-11-21T05:35:58;7.20;99.90
29813;DHT22;16707;48.106;11.548;2023-11-21T05:38:25;7.10;99.90
29813;DHT22;16707;48.106;11.548;2023-11-21T05:40:51;7.10;99.90
29813;DHT22;16707;48.106;11.548;2023-11-21T05:43:18;7.20;99.90
29813;DHT22;16707;48.106;11.548;2023-11-21T05:45:45;7.20;99.90
29813;DHT22;16707;48.106;11.548;2023-11-21T05:48:11;7.20;99.90
29813;DHT22;16707;48.106;11.548;2023-11-21T05:50:39;7.20;99.90
29813;DHT22;16707;48.106;11.548;2023-11-21T05:53:06;7.20;99.90
29813;DHT22;16707;48.106;11.548;2023-11-21T05:55:35;7.30;99.90
29813;DHT22;16707;48.106;11.548;2023-11-21T05:58:02;7.30;99.90
29813;DHT22;16707;48.106;11.548;2023-11-21T06:00:29;7.20;99.90
29813;DHT22;16707;48.106;11.548;2023-11-21T06:02:57;7.20;99.90
29813;DHT22;16707;48.106;11.548;2023-11-21T06:05:24;7.20;99.90
29813;DHT22;16707;48.106;11.548;2023-11-21T06:07:54;7.10;99.90
29813;DHT22;16707;48.106;11.548;2023-11-21T06:10:22;7.10;99.90
29813;DHT22;16707;48.106;11.548;2023-11-21T06:12:49;7.10;99.90
29813;DHT22;16707;48.106;11.548;2023-11-21T06:15:16;7.00;99.90
29813;DHT22;16707;48.106;11.548;2023-11-21T06:17:44;7.00;99.90
29813;DHT22;16707;48.106;11.548;2023-11-21T06:20:14;7.10;99.90
29813;DHT22;16707;48.106;11.548;2023-11-21T06:22:44;7.10;99.90
29813;DHT22;16707;48.106;11.548;2023-11-21T06:25:12;7.10;99.90
29813;DHT22;16707;48.106;11.548;2023-11-21T06:27:42;7.20;99.90
29813;DHT22;16707;48.106;11.548;2023-11-21T06:30:12;7.30;99.90
29813;DHT22;16707;48.106;11.548;2023-11-21T06:32:40;7.30;99.90
29813;DHT22;16707;48.106;11.548;2023-11-21T06:35:07;7.30;99.90
29813;DHT22;16707;48.106;11.548;2023-11-21T06:37:35;7.70;99.90
29813;DHT22;16707;48.106;11.548;2023-11-21T06:40:02;7.90;99.90
29813;DHT22;16707;48.106;11.548;2023-11-21T06:42:30;8.10;99.90
29813;DHT22;16707;48.106;11.548;2023-11-21T06:44:58;8.20;99.90
29813;DHT22;16707;48.106;11.548;2023-11-21T06:47:29;8.30;99.90
29813;DHT22;16707;48.106;11.548;2023-11-21T06:49:55;8.40;99.90
29813;DHT22;16707;48.106;11.548;2023-11-21T06:52:22;8.30;99.90
29813;DHT22;16707;48.106;11.548;2023-11-21T06:54:49;8.40;99.90
29813;DHT22;16707;48.106;11.548;2023-11-21T06:57:16;8.30;99.90
29813;DHT22;16707;48.106;11.548;2023-11-21T06:59:44;8.30;99.90
29813;DHT22;16707;48.106;11.548;2023-11-21T07:02:10;8.10;99.90
29813;DHT22;16707;48.106;11.548;2023-11-21T07:04:37;8.00;99.90
29813;DHT22;16707;48.106;11.548;2023-11-21T07:07:04;7.90;99.90
29813;DHT22;16707;48.106;11.548;2023-11-21T07:09:41;7.80;99.90
29813;DHT22;16707;48.106;11.548;2023-11-21T07:12:08;7.80;99.90
29813;DHT22;16707;48.106;11.548;2023-11-21T07:14:34;7.80;99.90
29813;DHT22;16707;48.106;11.548;2023-11-21T07:17:03;7.80;99.90
29813;DHT22;16707;48.106;11.548;2023-11-21T07:19:30;7.90;99.90
29813;DHT22;16707;48.106;11.548;2023-11-21T07:22:00;7.90;99.90
29813;DHT22;16707;48.106;11.548;2023-11-21T07:24:26;7.90;99.90
29813;DHT22;16707;48.106;11.548;2023-11-21T07:26:53;7.90;99.90
29813;DHT22;16707;48.106;11.548;2023-11-21T07:29:22;7.80;99.90
29813;DHT22;16707;48.106;11.548;2023-11-21T07:31:51;7.80;99.90
29813;DHT22;16707;48.106;11.548;2023-11-21T07:34:19;7.80;99.90
29813;DHT22;16707;48.106;11.548;2023-11-21T07:36:46;7.90;99.90
29813;DHT22;16707;48.106;11.548;2023-11-21T07:39:12;7.90;99.90
29813;DHT22;16707;48.106;11.548;2023-11-21T07:41:41;8.00;99.90
29813;DHT22;16707;48.106;11.548;2023-11-21T07:44:14;8.10;99.90
29813;DHT22;16707;48.106;11.548;2023-11-21T07:46:42;8.20;99.90
29813;DHT22;16707;48.106;11.548;2023-11-21T07:49:09;8.30;99.90
29813;DHT22;16707;48.106;11.548;2023-11-21T07:51:44;8.30;99.90
29813;DHT22;16707;48.106;11.548;2023-11-21T07:54:16;8.30;99.90
29813;DHT22;16707;48.106;11.548;2023-11-21T07:56:46;8.40;99.90
29813;DHT22;16707;48.106;11.548;2023-11-21T07:59:12;8.50;99.90
29813;DHT22;16707;48.106;11.548;2023-11-21T08:01:39;8.60;99.90
29813;DHT22;16707;48.106;11.548;2023-11-21T08:04:08;8.60;99.90
29813;DHT22;16707;48.106;11.548;2023-11-21T08:06:35;8.60;99.90
29813;DHT22;16707;48.106;11.548;2023-11-21T08:09:03;8.70;99.90
29813;DHT22;16707;48.106;11.548;2023-11-21T08:11:30;8.80;99.90
29813;DHT22;16707;48.106;11.548;2023-11-21T08:13:58;8.80;99.90
29813;DHT22;16707;48.106;11.548;2023-11-21T08:16:25;8.90;99.90
29813;DHT22;16707;48.106;11.548;2023-11-21T08:18:52;8.90;99.90
29813;DHT22;16707;48.106;11.548;2023-11-21T08:21:19;9.00;99.90
29813;DHT22;16707;48.106;11.548;2023-11-21T08:23:46;9.10;99.90
29813;DHT22;16707;48.106;11.548;2023-11-21T08:26:20;9.10;99.90
29813;DHT22;16707;48.106;11.548;2023-11-21T08:28:46;9.20;99.90
29813;DHT22;16707;48.106;11.548;2023-11-21T08:31:13;9.10;99.90
29813;DHT22;16707;48.106;11.548;2023-11-21T08:33:41;9.10;99.90
29813;DHT22;16707;48.106;11.548;2023-11-21T08:36:08;9.30;99.90
29813;DHT22;16707;48.106;11.548;2023-11-21T08:38:36;9.20;99.90
29813;DHT22;16707;48.106;11.548;2023-11-21T08:41:04;9.20;99.90
29813;DHT22;16707;48.106;11.548;2023-11-21T08:43:34;9.10;99.90
29813;DHT22;16707;48.106;11.548;2023-11-21T08:46:01;9.10;99.90
29813;DHT22;16707;48.106;11.548;2023-11-21T08:48:28;9.10;99.90
29813;DHT22;16707;48.106;11.548;2023-11-21T08:50:55;9.20;99.90
29813;DHT22;16707;48.106;11.548;2023-11-21T08:53:21;9.30;99.90
29813;DHT22;16707;48.106;11.548;2023-11-21T08:55:48;9.50;99.90
29813;DHT22;16707;48.106;11.548;2023-11-21T08:58:15;9.80;99.90
29813;DHT22;16707;48.106;11.548;2023-11-21T09:00:44;9.90;99.90
29813;DHT22;16707;48.106;11.548;2023-11-21T09:03:11;9.90;99.90
29813;DHT22;16707;48.106;11.548;2023-11-21T09:05:38;9.80;99.90
29813;DHT22;16707;48.106;11.548;2023-11-21T09:08:05;9.90;99.90
29813;DHT22;16707;48.106;11.548;2023-11-21T09:10:32;10.00;99.90
29813;DHT22;16707;48.106;11.548;2023-11-21T09:13:01;10.20;99.90
29813;DHT22;16707;48.106;11.548;2023-11-21T09:15:27;10.40;99.90
29813;DHT22;16707;48.106;11.548;2023-11-21T09:17:55;10.40;99.90
29813;DHT22;16707;48.106;11.548;2023-11-21T09:20:22;10.50;99.90
29813;DHT22;16707;48.106;11.548;2023-11-21T09:22:49;10.50;99.90
29813;DHT22;16707;48.106;11.548;2023-11-21T09:25:15;10.50;99.90
29813;DHT22;16707;48.106;11.548;2023-11-21T09:27:42;10.50;99.90
29813;DHT22;16707;48.106;11.548;2023-11-21T09:30:11;10.50;99.90
29813;DHT22;16707;48.106;11.548;2023-11-21T09:32:39;10.50;99.90
29813;DHT22;16707;48.106;11.548;2023-11-21T09:35:08;10.50;99.90
29813;DHT22;16707;48.106;11.548;2023-11-21T09:37:35;10.60;99.90
29813;DHT22;16707;48.106;11.548;2023-11-21T09:40:04;10.50;99.90
29813;DHT22;16707;48.106;11.548;2023-11-21T09:42:38;10.50;99.90
29813;DHT22;16707;48.106;11.548;2023-11-21T09:45:09;10.50;99.90
29813;DHT22;16707;48.106;11.548;2023-11-21T09:47:40;10.20;99.90
29813;DHT22;16707;48.106;11.548;2023-11-21T09:50:08;9.90;99.90
29813;DHT22;16707;48.106;11.548;2023-11-21T09:52:38;9.80;99.90
29813;DHT22;16707;48.106;11.548;2023-11-21T09:55:08;9.70;99.90
29813;DHT22;16707;48.106;11.548;2023-11-21T09:57:38;9.50;99.90
29813;DHT22;16707;48.106;11.548;2023-11-21T10:00:06;9.40;99.90
29813;DHT22;16707;48.106;11.548;2023-11-21T10:02:37;9.40;99.90
29813;DHT22;16707;48.106;11.548;2023-11-21T10:05:07;9.40;99.90
29813;DHT22;16707;48.106;11.548;2023-11-21T10:07:36;9.40;99.90
29813;DHT22;16707;48.106;11.548;2023-11-21T10:10:05;9.60;99.90
29813;DHT22;16707;48.106;11.548;2023-11-21T10:12:33;9.50;99.90
29813;DHT22;16707;48.106;11.548;2023-11-21T10:15:01;9.50;99.90
29813;DHT22;16707;48.106;11.548;2023-11-21T10:17:31;9.50;99.90
29813;DHT22;16707;48.106;11.548;2023-11-21T10:20:04;9.50;99.90
29813;DHT22;16707;48.106;11.548;2023-11-21T10:22:38;9.80;99.90
29813;DHT22;16707;48.106;11.548;2023-11-21T10:25:06;10.10;99.90
29813;DHT22;16707;48.106;11.548;2023-11-21T10:27:33;10.20;99.90
29813;DHT22;16707;48.106;11.548;2023-11-21T10:30:00;10.30;99.90
29813;DHT22;16707;48.106;11.548;2023-11-21T10:32:28;10.50;99.90
29813;DHT22;16707;48.106;11.548;2023-11-21T10:34:57;10.70;99.90
29813;DHT22;16707;48.106;11.548;2023-11-21T10:37:25;10.90;99.90
29813;DHT22;16707;48.106;11.548;2023-11-21T10:39:58;11.30;99.90
29813;DHT22;16707;48.106;11.548;2023-11-21T10:42:24;11.50;99.90
29813;DHT22;16707;48.106;11.548;2023-11-21T10:44:52;11.60;99.90
29813;DHT22;16707;48.106;11.548;2023-11-21T10:47:19;11.60;99.90
29813;DHT22;16707;48.106;11.548;2023-11-21T10:49:48;11.60;99.90
29813;DHT22;16707;48.106;11.548;2023-11-21T10:52:15;11.50;99.90
29813;DHT22;16707;48.106;11.548;2023-11-21T10:54:42;11.30;99.90
29813;DHT22;16707;48.106;11.548;2023-11-21T10:57:11;11.20;99.90
29813;DHT22;16707;48.106;11.548;2023-11-21T10:59:40;11.20;99.90
29813;DHT22;16707;48.106;11.548;2023-11-21T11:02:10;11.10;99.90
29813;DHT22;16707;48.106;11.548;2023-11-21T11:04:39;11.10;99.90
29813;DHT22;16707;48.106;11.548;2023-11-21T11:07:06;11.00;99.90
29813;DHT22;16707;48.106;11.548;2023-11-21T11:09:36;11.00;99.90
29813;DHT22;16707;48.106;11.548;2023-11-21T11:12:02;11.20;99.90
29813;DHT22;16707;48.106;11.548;2023-11-21T11:14:32;11.30;99.90
29813;DHT22;16707;48.106;11.548;2023-11-21T11:16:59;11.20;99.90
29813;DHT22;16707;48.106;11.548;2023-11-21T11:19:27;11.10;99.90
29813;DHT22;16707;48.106;11.548;2023-11-21T11:21:58;11.10;99.90
29813;DHT22;16707;48.106;11.548;2023-11-21T11:24:34;11.30;99.90
29813;DHT22;16707;48.106;11.548;2023-11-21T11:27:14;11.50;99.90
29813;DHT22;16707;48.106;11.548;2023-11-21T11:29:46;11.80;99.90
29813;DHT22;16707;48.106;11.548;2023-11-21T11:32:21;11.90;99.90
29813;DHT22;16707;48.106;11.548;2023-11-21T11:34:50;12.00;99.90
29813;DHT22;16707;48.106;11.548;2023-11-21T11:37:16;12.10;99.90
29813;DHT22;16707;48.106;11.548;2023-11-21T11:39:44;12.00;99.90
29813;DHT22;16707;48.106;11.548;2023-11-21T11:42:12;12.00;99.90
29813;DHT22;16707;48.106;11.548;2023-11-21T11:44:47;11.80;99.90
29813;DHT22;16707;48.106;11.548;2023-11-21T11:47:16;11.60;99.90
29813;DHT22;16707;48.106;11.548;2023-11-21T11:49:56;11.50;99.90
29813;DHT22;16707;48.106;11.548;2023-11-21T11:52:32;11.50;99.90
29813;DHT22;16707;48.106;11.548;2023-11-21T11:55:01;11.30;99.90
29813;DHT22;16707;48.106;11.548;2023-11-21T11:57:29;11.20;99.90
29813;DHT22;16707;48.106;11.548;2023-11-21T12:00:14;11.00;99.90
29813;DHT22;16707;48.106;11.548;2023-11-21T12:02:46;11.00;99.90
29813;DHT22;16707;48.106;11.548;2023-11-21T12:05:13;11.10;99.90
29813;DHT22;16707;48.106;11.548;2023-11-21T12:07:47;11.30;99.90
29813;DHT22;16707;48.106;11.548;2023-11-21T12:10:14;11.30;99.90
29813;DHT22;16707;48.106;11.548;2023-11-21T12:12:43;11.30;99.90
29813;DHT22;16707;48.106;11.548;2023-11-21T12:15:11;11.40;99.90
29813;DHT22;16707;48.106;11.548;2023-11-21T12:17:39;11.50;99.90
29813;DHT22;16707;48.106;11.548;2023-11-21T12:20:07;11.60;99.90
29813;DHT22;16707;48.106;11.548;2023-11-21T12:22:41;11.70;99.90
29813;DHT22;16707;48.106;11.548;2023-11-21T12:25:08;11.70;99.90
29813;DHT22;16707;48.106;11.548;2023-11-21T12:27:35;11.80;99.90
29813;DHT22;16707;48.106;11.548;2023-11-21T12:30:01;11.90;99.90
29813;DHT22;16707;48.106;11.548;2023-11-21T12:32:30;11.80;99.90
29813;DHT22;16707;48.106;11.548;2023-11-21T12:34:58;11.70;99.90
29813;DHT22;16707;48.106;11.548;2023-11-21T12:37:26;11.60;99.90
29813;DHT22;16707;48.106;11.548;2023-11-21T12:39:52;11.60;99.90
29813;DHT22;16707;48.106;11.548;2023-11-21T12:42:23;11.50;99.90
29813;DHT22;16707;48.106;11.548;2023-11-21T12:47:33;11.50;99.90
29813;DHT22;16707;48.106;11.548;2023-11-21T12:50:02;11.50;99.90
29813;DHT22;16707;48.106;11.548;2023-11-21T12:52:31;11.70;99.90
29813;DHT22;16707;48.106;11.548;2023-11-21T12:54:58;11.80;99.90
29813;DHT22;16707;48.106;11.548;2023-11-21T12:57:25;11.60;99.90
29813;DHT22;16707;48.106;11.548;2023-11-21T12:59:52;11.60;99.90
29813;DHT22;16707;48.106;11.548;2023-11-21T13:02:25;11.40;99.90
29813;DHT22;16707;48.106;11.548;2023-11-21T13:04:52;11.30;99.90
29813;DHT22;16707;48.106;11.548;2023-11-21T13:07:20;11.20;99.90
29813;DHT22;16707;48.106;11.548;2023-11-21T13:09:48;11.10;99.90
29813;DHT22;16707;48.106;11.548;2023-11-21T13:12:23;11.00;99.90
29813;DHT22;16707;48.106;11.548;2023-11-21T13:14:50;10.80;99.90
29813;DHT22;16707;48.106;11.548;2023-11-21T13:17:17;10.40;99.90
29813;DHT22;16707;48.106;11.548;2023-11-21T13:19:43;10.40;99.90
29813;DHT22;16707;48.106;11.548;2023-11-21T13:22:10;10.40;99.90
29813;DHT22;16707;48.106;11.548;2023-11-21T13:24:38;10.40;99.90
29813;DHT22;16707;48.106;11.548;2023-11-21T13:27:05;10.40;99.90
29813;DHT22;16707;48.106;11.548;2023-11-21T13:29:32;10.60;99.90
29813;DHT22;16707;48.106;11.548;2023-11-21T13:32:00;10.60;99.90
29813;DHT22;16707;48.106;11.548;2023-11-21T13:34:28;10.90;99.90
29813;DHT22;16707;48.106;11.548;2023-11-21T13:36:55;10.70;99.90
29813;DHT22;16707;48.106;11.548;2023-11-21T13:39:26;10.70;99.90
29813;DHT22;16707;48.106;11.548;2023-11-21T13:41:55;10.80;99.90
29813;DHT22;16707;48.106;11.548;2023-11-21T13:44:22;10.80;99.90
29813;DHT22;16707;48.106;11.548;2023-11-21T13:46:59;10.70;99.90
29813;DHT22;16707;48.106;11.548;2023-11-21T13:49:26;10.60;99.90
29813;DHT22;16707;48.106;11.548;2023-11-21T13:51:55;10.60;99.90
29813;DHT22;16707;48.106;11.548;2023-11-21T13:54:23;10.60;99.90
29813;DHT22;16707;48.106;11.548;2023-11-21T13:56:50;10.70;99.90
29813;DHT22;16707;48.106;11.548;2023-11-21T13:59:18;10.90;99.90
29813;DHT22;16707;48.106;11.548;2023-11-21T14:01:48;11.10;99.90
29813;DHT22;16707;48.106;11.548;2023-11-21T14:04:23;11.10;99.90
29813;DHT22;16707;48.106;11.548;2023-11-21T14:07:12;11.00;99.90
29813;DHT22;16707;48.106;11.548;2023-11-21T14:09:48;10.70;99.90
29813;DHT22;16707;48.106;11.548;2023-11-21T14:12:15;10.00;99.90
29813;DHT22;16707;48.106;11.548;2023-11-21T14:14:43;9.20;99.90
29813;DHT22;16707;48.106;11.548;2023-11-21T14:17:10;8.90;99.90
29813;DHT22;16707;48.106;11.548;2023-11-21T14:19:37;8.70;99.90
29813;DHT22;16707;48.106;11.548;2023-11-21T14:22:08;8.60;99.90
29813;DHT22;16707;48.106;11.548;2023-11-21T14:24:35;8.60;99.90
29813;DHT22;16707;48.106;11.548;2023-11-21T14:27:02;8.40;99.90
29813;DHT22;16707;48.106;11.548;2023-11-21T14:29:29;8.30;99.90
29813;DHT22;16707;48.106;11.548;2023-11-21T14:31:58;8.20;99.90
29813;DHT22;16707;48.106;11.548;2023-11-21T14:34:24;8.10;99.90
29813;DHT22;16707;48.106;11.548;2023-11-21T14:36:52;8.10;99.90
29813;DHT22;16707;48.106;11.548;2023-11-21T14:39:18;8.20;99.90
29813;DHT22;16707;48.106;11.548;2023-11-21T14:41:48;8.20;99.90
29813;DHT22;16707;48.106;11.548;2023-11-21T14:44:15;8.00;99.90
29813;DHT22;16707;48.106;11.548;2023-11-21T14:46:42;8.00;99.90
29813;DHT22;16707;48.106;11.548;2023-11-21T14:49:12;8.00;99.90
29813;DHT22;16707;48.106;11.548;2023-11-21T14:51:46;8.00;99.90
29813;DHT22;16707;48.106;11.548;2023-11-21T14:54:26;8.10;99.90
29813;DHT22;16707;48.106;11.548;2023-11-21T14:57:05;8.10;99.90
29813;DHT22;16707;48.106;11.548;2023-11-21T14:59:36;8.00;99.90
29813;DHT22;16707;48.106;11.548;2023-11-21T15:02:02;7.90;99.90
29813;DHT22;16707;48.106;11.548;2023-11-21T15:04:42;7.90;99.90
29813;DHT22;16707;48.106;11.548;2023-11-21T15:07:08;7.90;99.90
29813;DHT22;16707;48.106;11.548;2023-11-21T15:09:35;7.90;99.90
29813;DHT22;16707;48.106;11.548;2023-11-21T15:12:06;7.90;99.90
29813;DHT22;16707;48.106;11.548;2023-11-21T15:14:40;7.90;99.90
29813;DHT22;16707;48.106;11.548;2023-11-21T15:17:08;7.80;99.90
29813;DHT22;16707;48.106;11.548;2023-11-21T15:19:35;7.80;99.90
29813;DHT22;16707;48.106;11.548;2023-11-21T15:22:03;7.70;99.90
29813;DHT22;16707;48.106;11.548;2023-11-21T15:24:32;7.70;99.90
29813;DHT22;16707;48.106;11.548;2023-11-21T15:26:59;7.60;99.90
29813;DHT22;16707;48.106;11.548;2023-11-21T15:29:25;7.60;99.90
29813;DHT22;16707;48.106;11.548;2023-11-21T15:31:52;7.70;99.90
29813;DHT22;16707;48.106;11.548;2023-11-21T15:34:21;7.70;99.90
29813;DHT22;16707;48.106;11.548;2023-11-21T15:36:48;7.70;99.90